Time;durP1;ratioP1;P1;durP2;ratioP2;P2;SDS_P1;SDS_P2;PMS_P1;PMS_P2;Temp;Humidity;BMP_temperature;BMP_pressure;BME280_temperature;BME280_humidity;BME280_pressure;Samples;Min_cycle;Max_cycle;Signal;HPM_P1;HPM_P2
2023/01/16 00:01:55;;;;;;;8.80;6.50;;;4.90;91.50;;;;;;5030443;28;20112;-44
2023/01/16 00:04:22;;;;;;;8.82;6.85;;;4.90;91.40;;;;;;5033624;28;20119;-44
2023/01/16 00:06:49;;;;;;;12.98;6.40;;;4.90;91.30;;;;;;5033046;28;20036;-46
2023/01/16 00:09:16;;;;;;;8.80;6.53;;;4.90;91.20;;;;;;5034386;28;20029;-45
2023/01/16 00:11:44;;;;;;;13.80;8.43;;;5.00;91.10;;;;;;5027685;28;20029;-44
2023/01/16 00:14:13;;;;;;;14.65;6.45;;;4.90;90.90;;;;;;5034100;28;20059;-45
2023/01/16 00:16:40;;;;;;;13.20;5.90;;;4.90;90.80;;;;;;5034377;28;20021;-47
2023/01/16 00:19:09;;;;;;;8.75;6.00;;;4.90;90.70;;;;;;5028628;28;20034;-48
2023/01/16 00:21:36;;;;;;;8.18;6.32;;;5.00;90.40;;;;;;5014964;28;20392;-49
2023/01/16 00:24:03;;;;;;;10.85;6.45;;;5.00;90.30;;;;;;5033129;28;20025;-45
2023/01/16 00:26:31;;;;;;;12.88;7.18;;;5.00;90.20;;;;;;5029852;28;20033;-47
2023/01/16 00:28:58;;;;;;;7.40;4.95;;;5.00;90.10;;;;;;5044555;28;20032;-47
2023/01/16 00:31:27;;;;;;;10.50;5.97;;;5.00;90.10;;;;;;5043310;28;20022;-46
2023/01/16 00:33:55;;;;;;;13.90;5.90;;;4.90;89.80;;;;;;5043636;28;20021;-46
2023/01/16 00:36:22;;;;;;;10.18;6.70;;;4.90;89.70;;;;;;5053529;28;20096;-45
2023/01/16 00:38:52;;;;;;;7.28;5.40;;;4.80;89.50;;;;;;5047716;28;20151;-46
2023/01/16 00:41:20;;;;;;;8.35;4.72;;;4.70;89.50;;;;;;5028606;28;20052;-44
2023/01/16 00:43:52;;;;;;;6.47;5.03;;;4.70;89.40;;;;;;5033671;28;20075;-45
2023/01/16 00:46:18;;;;;;;9.15;5.25;;;4.60;89.40;;;;;;5034380;28;20057;-46
2023/01/16 00:48:45;;;;;;;7.70;4.68;;;4.50;89.40;;;;;;5027530;28;20053;-45
2023/01/16 00:51:11;;;;;;;10.07;5.28;;;4.40;89.60;;;;;;5014683;28;20060;-46
2023/01/16 00:53:38;;;;;;;10.45;4.68;;;4.40;89.70;;;;;;5013760;28;20026;-46
2023/01/16 00:56:06;;;;;;;6.38;4.75;;;4.40;89.70;;;;;;5019293;28;20032;-47
2023/01/16 00:58:34;;;;;;;9.23;4.72;;;4.40;90.00;;;;;;5027939;28;20079;-45
2023/01/16 01:01:01;;;;;;;9.25;4.60;;;4.50;90.10;;;;;;5032420;28;20060;-46
2023/01/16 01:03:33;;;;;;;9.65;5.60;;;4.50;90.10;;;;;;5051791;28;20107;-45
2023/01/16 01:06:05;;;;;;;10.88;5.75;;;4.50;90.10;;;;;;5037460;28;20063;-45
2023/01/16 01:08:32;;;;;;;11.18;6.40;;;4.60;90.30;;;;;;5031721;28;20497;-46
2023/01/16 01:11:09;;;;;;;8.60;5.63;;;4.60;90.30;;;;;;5033293;28;20444;-45
2023/01/16 01:13:37;;;;;;;10.32;5.70;;;4.60;90.30;;;;;;5028273;28;20344;-45
2023/01/16 01:16:07;;;;;;;10.73;5.20;;;4.60;90.40;;;;;;5031266;28;20099;-47
2023/01/16 01:18:34;;;;;;;8.80;5.22;;;4.60;90.40;;;;;;5033180;28;20018;-47
2023/01/16 01:21:01;;;;;;;7.65;4.28;;;4.70;90.40;;;;;;5026388;28;20036;-45
2023/01/16 01:23:28;;;;;;;5.57;4.85;;;4.70;90.40;;;;;;5012475;28;20030;-47
2023/01/16 01:25:55;;;;;;;8.63;4.72;;;4.70;90.20;;;;;;5013720;28;20018;-47
2023/01/16 01:28:21;;;;;;;6.72;4.15;;;4.70;90.10;;;;;;5013756;28;20025;-44
2023/01/16 01:30:48;;;;;;;6.80;4.43;;;4.70;90.00;;;;;;5026170;28;20029;-44
2023/01/16 01:33:14;;;;;;;5.65;3.97;;;4.70;90.10;;;;;;5030989;28;20522;-47
2023/01/16 01:35:41;;;;;;;9.43;4.30;;;4.70;90.10;;;;;;5049314;28;20032;-45
2023/01/16 01:38:08;;;;;;;6.22;4.35;;;4.70;90.00;;;;;;5053481;28;20028;-46
2023/01/16 01:40:35;;;;;;;9.02;4.93;;;4.70;90.20;;;;;;5053468;28;20112;-46
2023/01/16 01:43:02;;;;;;;6.68;4.78;;;4.70;90.10;;;;;;5036015;28;20037;-44
2023/01/16 01:45:30;;;;;;;6.78;4.80;;;4.70;90.20;;;;;;5012571;28;20033;-48
2023/01/16 01:48:10;;;;;;;6.20;3.88;;;4.70;90.20;;;;;;5030827;28;20029;-44
2023/01/16 01:50:57;;;;;;;9.68;4.68;;;4.70;90.40;;;;;;5033480;28;20044;-45
2023/01/16 01:53:32;;;;;;;7.68;4.82;;;4.70;90.30;;;;;;5031977;28;20063;-45
2023/01/16 01:56:13;;;;;;;6.53;4.22;;;4.80;90.40;;;;;;5046258;28;20031;-45
2023/01/16 01:58:41;;;;;;;6.32;4.10;;;4.80;90.50;;;;;;5052779;28;20104;-44
2023/01/16 02:01:08;;;;;;;6.53;4.00;;;4.80;90.40;;;;;;5043233;28;20034;-44
2023/01/16 02:03:51;;;;;;;8.10;4.13;;;4.80;90.40;;;;;;5012997;28;20046;-46
2023/01/16 02:06:24;;;;;;;8.68;3.97;;;4.80;90.30;;;;;;5013406;28;20375;-45
2023/01/16 02:08:53;;;;;;;7.57;3.50;;;4.80;90.30;;;;;;5013194;28;20033;-46
2023/01/16 02:11:27;;;;;;;8.35;3.35;;;4.80;90.30;;;;;;5025261;28;20055;-46
2023/01/16 02:14:16;;;;;;;6.80;3.28;;;4.70;90.20;;;;;;5012900;28;20026;-43
2023/01/16 02:19:56;;;;;;;7.97;3.38;;;4.70;90.20;;;;;;5031099;28;20161;-45
2023/01/16 02:22:46;;;;;;;7.80;3.38;;;4.60;90.10;;;;;;5022403;28;20079;-45
2023/01/16 02:25:51;;;;;;;6.07;3.00;;;4.60;90.20;;;;;;5016829;28;20569;-45
2023/01/16 02:28:49;;;;;;;7.28;3.08;;;4.50;90.40;;;;;;5044575;28;20091;-45
2023/01/16 02:31:48;;;;;;;7.68;2.88;;;4.50;90.70;;;;;;5032049;28;20247;-45
2023/01/16 02:34:56;;;;;;;7.35;3.25;;;4.50;90.70;;;;;;5033894;28;20048;-44
2023/01/16 02:37:41;;;;;;;8.23;3.10;;;4.50;90.80;;;;;;5042515;28;20084;-45
2023/01/16 02:40:36;;;;;;;6.90;2.63;;;4.50;91.00;;;;;;5029574;28;20031;-44
2023/01/16 02:43:27;;;;;;;6.55;2.05;;;4.50;91.00;;;;;;5029289;28;20097;-45
2023/01/16 02:46:14;;;;;;;6.13;2.22;;;4.50;90.90;;;;;;5031319;28;20478;-43
2023/01/16 02:48:49;;;;;;;6.53;2.63;;;4.50;90.80;;;;;;5029312;28;20036;-45
2023/01/16 02:51:36;;;;;;;4.35;1.98;;;4.40;90.80;;;;;;5028087;28;20339;-45
2023/01/16 02:54:16;;;;;;;4.75;2.22;;;4.40;90.80;;;;;;5031126;28;20036;-44
2023/01/16 02:56:52;;;;;;;3.60;2.08;;;4.40;90.80;;;;;;5031429;28;20022;-45
2023/01/16 02:59:26;;;;;;;6.57;3.20;;;4.40;90.80;;;;;;5029469;28;20041;-45
2023/01/16 03:01:57;;;;;;;8.60;2.53;;;4.40;90.80;;;;;;5029313;28;20053;-44
2023/01/16 03:04:50;;;;;;;4.70;2.50;;;4.40;90.80;;;;;;5031130;28;20083;-46
2023/01/16 03:07:53;;;;;;;5.78;2.33;;;4.50;90.90;;;;;;5030666;28;20418;-46
2023/01/16 03:10:50;;;;;;;7.60;2.65;;;4.40;90.90;;;;;;5028483;28;20042;-47
2023/01/16 03:13:49;;;;;;;9.95;2.88;;;4.40;90.90;;;;;;5033004;28;20033;-46
2023/01/16 03:16:33;;;;;;;;;;;4.40;91.00;;;;;;5031958;28;20036;-46
2023/01/16 03:19:20;;;;;;;6.43;2.25;;;4.40;90.70;;;;;;5034590;28;19913;-46
2023/01/16 03:22:05;;;;;;;7.82;2.28;;;4.40;90.70;;;;;;5019018;28;20026;-45
2023/01/16 03:25:09;;;;;;;6.82;2.33;;;4.30;90.60;;;;;;5031825;28;20033;-45
2023/01/16 03:27:53;;;;;;;6.60;2.15;;;4.30;90.70;;;;;;5030310;28;20029;-44
2023/01/16 03:30:29;;;;;;;6.07;2.10;;;4.30;90.80;;;;;;5031597;28;20029;-45
2023/01/16 03:33:19;;;;;;;5.90;2.88;;;4.30;90.80;;;;;;5033055;28;20048;-46
2023/01/16 03:35:59;;;;;;;4.72;2.33;;;4.40;90.90;;;;;;5034355;28;20362;-46
2023/01/16 03:38:28;;;;;;;7.25;3.25;;;4.40;91.10;;;;;;5034332;28;20018;-44
2023/01/16 03:40:58;;;;;;;8.02;3.65;;;4.40;91.00;;;;;;5022906;28;20030;-44
2023/01/16 03:43:36;;;;;;;5.70;2.20;;;4.40;90.90;;;;;;5016239;28;20034;-49
2023/01/16 03:46:05;;;;;;;7.93;2.10;;;4.40;90.80;;;;;;5021967;28;20026;-46
2023/01/16 03:48:50;;;;;;;5.18;2.25;;;4.40;90.80;;;;;;5027378;28;20405;-44
2023/01/16 03:51:23;;;;;;;5.55;2.30;;;4.50;90.80;;;;;;5015648;28;20030;-45
2023/01/16 03:54:01;;;;;;;5.95;1.85;;;4.50;90.80;;;;;;5013577;28;20053;-43
2023/01/16 03:56:58;;;;;;;6.95;2.83;;;4.50;90.80;;;;;;5013836;28;20022;-47
2023/01/16 03:59:25;;;;;;;5.00;2.00;;;4.60;90.80;;;;;;5015282;28;20096;-45
2023/01/16 04:02:03;;;;;;;5.60;2.17;;;4.50;90.70;;;;;;5015680;28;20065;-45
2023/01/16 04:04:49;;;;;;;9.07;2.10;;;4.50;90.60;;;;;;5014662;28;20053;-45
2023/01/16 04:07:40;;;;;;;7.07;2.00;;;4.60;90.80;;;;;;5015492;28;20399;-44
2023/01/16 04:10:11;;;;;;;6.05;2.30;;;4.60;90.70;;;;;;5014281;28;20084;-46
2023/01/16 04:12:52;;;;;;;4.28;2.00;;;4.60;90.90;;;;;;5027774;28;20022;-44
2023/01/16 04:15:20;;;;;;;6.63;1.98;;;4.60;90.80;;;;;;5033859;28;20040;-44
2023/01/16 04:17:50;;;;;;;6.47;2.30;;;4.60;90.90;;;;;;5033708;28;20102;-43
2023/01/16 04:20:19;;;;;;;5.97;1.98;;;4.60;90.90;;;;;;5031564;28;20026;-45
2023/01/16 04:22:50;;;;;;;6.03;2.37;;;4.60;90.90;;;;;;5034094;28;20025;-44
2023/01/16 04:25:19;;;;;;;5.63;2.20;;;4.60;90.80;;;;;;5033631;28;20033;-45
2023/01/16 04:27:46;;;;;;;13.00;3.75;;;4.60;90.80;;;;;;5031243;28;20480;-45
2023/01/16 04:30:15;;;;;;;5.38;2.22;;;4.60;90.80;;;;;;5031516;28;20120;-44
2023/01/16 04:32:43;;;;;;;5.13;2.35;;;4.60;90.90;;;;;;5030608;28;20049;-45
2023/01/16 04:35:12;;;;;;;5.43;1.88;;;4.60;90.80;;;;;;5014055;28;20099;-47
2023/01/16 04:37:39;;;;;;;5.47;2.33;;;4.60;90.90;;;;;;5024597;28;20038;-46
2023/01/16 04:40:08;;;;;;;13.35;2.83;;;4.70;90.90;;;;;;5013860;28;20045;-45
2023/01/16 04:42:35;;;;;;;7.70;2.70;;;4.60;90.90;;;;;;5014918;28;20317;-43
2023/01/16 04:45:03;;;;;;;9.13;3.33;;;4.60;91.00;;;;;;5014139;28;20113;-44
2023/01/16 04:47:30;;;;;;;5.90;3.42;;;4.60;91.00;;;;;;5014796;28;20037;-44
2023/01/16 04:49:57;;;;;;;6.03;2.92;;;4.60;91.00;;;;;;5034266;28;20104;-45
2023/01/16 04:52:23;;;;;;;5.95;3.05;;;4.60;90.90;;;;;;5033350;28;20032;-47
2023/01/16 04:54:50;;;;;;;6.50;3.05;;;4.60;91.00;;;;;;5028316;28;20064;-45
2023/01/16 04:57:16;;;;;;;13.32;3.88;;;4.70;90.90;;;;;;5013885;28;20021;-44
2023/01/16 04:59:43;;;;;;;8.90;3.83;;;4.70;90.80;;;;;;5013541;28;20040;-49
2023/01/16 05:02:10;;;;;;;7.50;4.32;;;4.60;90.80;;;;;;5014044;28;20358;-45
2023/01/16 05:04:37;;;;;;;8.57;5.03;;;4.60;90.70;;;;;;5013770;28;20418;-44
2023/01/16 05:07:04;;;;;;;10.55;3.78;;;4.70;90.70;;;;;;5029550;28;20061;-46
2023/01/16 05:09:30;;;;;;;9.80;4.47;;;4.70;90.70;;;;;;5013110;28;20507;-44
2023/01/16 05:11:57;;;;;;;8.45;4.30;;;4.70;90.50;;;;;;5018232;28;20034;-44
2023/01/16 05:14:23;;;;;;;7.05;4.00;;;4.60;90.60;;;;;;5012626;28;20026;-44
2023/01/16 05:16:52;;;;;;;5.82;4.28;;;4.60;90.50;;;;;;5013381;28;20040;-44
2023/01/16 05:19:19;;;;;;;8.45;4.60;;;4.70;90.60;;;;;;5013587;28;20026;-46
2023/01/16 05:21:46;;;;;;;10.40;4.75;;;4.60;90.50;;;;;;5013882;28;20502;-45
2023/01/16 05:24:11;;;;;;;5.72;4.05;;;4.60;90.60;;;;;;5016854;28;20033;-44
2023/01/16 05:26:37;;;;;;;7.85;4.75;;;4.60;90.60;;;;;;5032299;28;20140;-45
2023/01/16 05:29:04;;;;;;;10.55;5.10;;;4.60;90.70;;;;;;5019444;28;20108;-47
2023/01/16 05:31:31;;;;;;;11.93;4.40;;;4.60;90.70;;;;;;5015782;28;20440;-44
2023/01/16 05:34:01;;;;;;;9.00;4.07;;;4.60;90.70;;;;;;5025135;28;20030;-46
2023/01/16 05:36:28;;;;;;;9.50;5.45;;;4.50;90.60;;;;;;5013894;28;20040;-43
2023/01/16 05:38:55;;;;;;;9.00;4.78;;;4.60;90.60;;;;;;5029300;28;20034;-46
2023/01/16 05:41:22;;;;;;;8.02;5.18;;;4.50;90.60;;;;;;5031713;28;20049;-44
2023/01/16 05:43:51;;;;;;;9.85;5.10;;;4.50;90.50;;;;;;5028530;28;20030;-44
2023/01/16 05:46:18;;;;;;;;;;;4.50;90.60;;;;;;5028764;28;20022;-46
2023/01/16 05:48:48;;;;;;;10.57;6.32;;;4.60;90.60;;;;;;5031179;28;19909;-45
2023/01/16 05:51:16;;;;;;;8.88;4.97;;;4.50;90.70;;;;;;5031702;28;20040;-44
2023/01/16 05:53:43;;;;;;;14.35;5.88;;;4.60;90.70;;;;;;5032440;28;20098;-47
2023/01/16 05:56:12;;;;;;;11.23;5.07;;;4.60;90.60;;;;;;5031666;28;20096;-43
2023/01/16 05:58:39;;;;;;;9.67;5.63;;;4.50;90.60;;;;;;5030201;28;20426;-46
2023/01/16 06:01:05;;;;;;;6.55;5.20;;;4.50;90.60;;;;;;5030724;28;20037;-44
2023/01/16 06:03:32;;;;;;;9.55;5.28;;;4.50;90.70;;;;;;5031505;28;20072;-46
2023/01/16 06:06:00;;;;;;;9.52;5.47;;;4.60;90.70;;;;;;5031670;28;20025;-43
2023/01/16 06:08:27;;;;;;;8.77;5.70;;;4.50;90.90;;;;;;5026873;28;20112;-47
2023/01/16 06:10:55;;;;;;;9.88;5.35;;;4.50;91.00;;;;;;5019729;28;20061;-45
2023/01/16 06:13:22;;;;;;;8.60;6.30;;;4.50;91.10;;;;;;5030869;28;20350;-44
2023/01/16 06:15:52;;;;;;;10.23;6.03;;;4.40;91.20;;;;;;5031612;28;20022;-46
2023/01/16 06:18:18;;;;;;;11.02;6.57;;;4.40;91.10;;;;;;5026471;28;20350;-45
2023/01/16 06:20:45;;;;;;;10.77;6.53;;;4.40;91.40;;;;;;5024302;28;20037;-43
2023/01/16 06:23:14;;;;;;;10.93;6.57;;;4.50;91.60;;;;;;5031429;28;20041;-45
2023/01/16 06:25:42;;;;;;;8.60;6.67;;;4.50;91.60;;;;;;5031737;28;20034;-47
2023/01/16 06:28:10;;;;;;;8.32;6.55;;;4.60;91.60;;;;;;5031721;28;20276;-43
2023/01/16 06:30:37;;;;;;;9.68;6.75;;;4.50;91.30;;;;;;5028940;28;20040;-44
2023/01/16 06:33:03;;;;;;;10.35;6.43;;;4.50;91.20;;;;;;5030495;28;20670;-43
2023/01/16 06:35:33;;;;;;;11.52;6.43;;;4.50;91.30;;;;;;5030398;28;20029;-45
2023/01/16 06:38:00;;;;;;;9.68;6.45;;;4.50;91.20;;;;;;5023889;28;20030;-44
2023/01/16 06:40:27;;;;;;;9.50;7.10;;;4.50;91.30;;;;;;5028332;28;20086;-44
2023/01/16 06:42:54;;;;;;;10.00;7.20;;;4.50;91.30;;;;;;5025486;28;20079;-44
2023/01/16 06:45:24;;;;;;;7.57;6.78;;;4.50;91.40;;;;;;5029537;28;20068;-44
2023/01/16 06:47:54;;;;;;;9.52;7.05;;;4.40;91.40;;;;;;5026738;28;20121;-45
2023/01/16 06:50:20;;;;;;;9.27;7.07;;;4.50;91.40;;;;;;5022087;28;20034;-48
2023/01/16 06:52:50;;;;;;;12.35;6.55;;;4.40;91.40;;;;;;5030030;28;20032;-45
2023/01/16 06:55:17;;;;;;;11.27;6.93;;;4.40;91.50;;;;;;5028039;28;20041;-45
2023/01/16 06:57:44;;;;;;;9.65;6.57;;;4.40;91.30;;;;;;5031555;28;20366;-43
2023/01/16 07:00:15;;;;;;;8.40;7.18;;;4.40;91.40;;;;;;5030575;28;20411;-44
2023/01/16 07:02:41;;;;;;;10.23;7.00;;;4.40;91.40;;;;;;5034568;28;20114;-44
2023/01/16 07:05:09;;;;;;;9.27;7.05;;;4.40;91.30;;;;;;5024645;28;20029;-45
2023/01/16 07:07:36;;;;;;;9.18;6.90;;;4.40;91.50;;;;;;5031083;28;20088;-45
2023/01/16 07:10:02;;;;;;;9.73;6.97;;;4.40;91.40;;;;;;5026236;28;20026;-45
2023/01/16 07:12:29;;;;;;;12.80;8.30;;;4.30;91.40;;;;;;5028114;28;20021;-45
2023/01/16 07:23:17;;;;;;;8.82;6.63;;;4.30;91.50;;;;;;5030386;28;20032;-44
2023/01/16 07:25:45;;;;;;;11.25;7.82;;;4.20;91.40;;;;;;5031194;28;20060;-47
2023/01/16 07:28:14;;;;;;;11.68;9.07;;;4.20;91.40;;;;;;5014421;28;20030;-44
2023/01/16 07:30:42;;;;;;;9.82;7.78;;;4.20;91.50;;;;;;5027871;28;20052;-45
2023/01/16 07:33:11;;;;;;;11.18;8.02;;;4.20;91.50;;;;;;5018691;28;20332;-46
2023/01/16 07:35:38;;;;;;;10.70;8.07;;;4.20;91.50;;;;;;5031798;28;20483;-44
2023/01/16 07:38:04;;;;;;;9.38;7.72;;;4.20;91.40;;;;;;5029974;28;20303;-46
2023/01/16 07:40:30;;;;;;;10.60;8.23;;;4.20;91.50;;;;;;5030877;28;20757;-44
2023/01/16 07:42:57;;;;;;;11.05;7.85;;;4.20;91.60;;;;;;5030490;28;20034;-43
2023/01/16 07:45:23;;;;;;;10.68;7.10;;;4.20;91.70;;;;;;5026965;28;20033;-43
2023/01/16 07:47:51;;;;;;;11.55;7.78;;;4.30;91.50;;;;;;5030534;28;20037;-44
2023/01/16 07:50:17;;;;;;;8.02;6.15;;;4.30;91.40;;;;;;5029936;28;20116;-45
2023/01/16 07:52:45;;;;;;;10.88;8.32;;;4.30;91.20;;;;;;5026178;28;20040;-50
2023/01/16 07:55:13;;;;;;;11.02;8.43;;;4.40;91.50;;;;;;5027505;28;20029;-46
2023/01/16 07:57:40;;;;;;;13.60;9.05;;;4.40;91.30;;;;;;5032586;28;20537;-43
2023/01/16 08:00:10;;;;;;;11.35;8.55;;;4.40;91.60;;;;;;5034666;28;20047;-49
2023/01/16 08:02:36;;;;;;;11.15;8.70;;;4.50;91.40;;;;;;5020681;28;20044;-46
2023/01/16 08:05:02;;;;;;;11.02;8.18;;;4.40;91.20;;;;;;5027522;28;20080;-46
2023/01/16 08:07:29;;;;;;;10.88;8.48;;;4.40;91.50;;;;;;5045230;28;20030;-43
2023/01/16 08:09:56;;;;;;;11.75;8.38;;;4.50;91.60;;;;;;5032152;28;20062;-46
2023/01/16 08:12:22;;;;;;;10.60;7.82;;;4.50;91.20;;;;;;5045784;28;20610;-43
2023/01/16 08:14:53;;;;;;;10.75;8.20;;;4.50;91.10;;;;;;5020997;28;20029;-44
2023/01/16 08:17:20;;;;;;;11.80;8.48;;;4.60;91.30;;;;;;5032038;28;20021;-44
2023/01/16 08:19:47;;;;;;;11.07;8.07;;;4.60;90.90;;;;;;5031993;28;20171;-44
2023/01/16 08:22:17;;;;;;;11.60;7.80;;;4.60;90.90;;;;;;5030254;28;20045;-43
2023/01/16 08:24:43;;;;;;;9.68;6.65;;;4.50;91.00;;;;;;5039718;28;20053;-43
2023/01/16 08:27:09;;;;;;;9.73;6.80;;;4.50;90.70;;;;;;5033287;28;20076;-45
2023/01/16 08:29:36;;;;;;;10.93;7.18;;;4.50;90.80;;;;;;5030846;28;20395;-45
2023/01/16 08:32:03;;;;;;;12.00;6.80;;;4.50;90.70;;;;;;5032892;28;20596;-45
2023/01/16 08:34:34;;;;;;;10.77;7.03;;;4.60;90.40;;;;;;5026341;28;20030;-45
2023/01/16 08:37:01;;;;;;;10.88;7.00;;;4.50;90.20;;;;;;5033688;28;20120;-44
2023/01/16 08:39:28;;;;;;;10.77;7.18;;;4.40;90.30;;;;;;5039442;28;20049;-45
2023/01/16 08:53:04;;;;;;;10.25;7.18;;;4.50;90.70;;;;;;5030444;28;20052;-44
2023/01/16 08:55:32;;;;;;;11.57;7.60;;;4.50;90.60;;;;;;5027404;28;20041;-45
2023/01/16 08:57:59;;;;;;;11.77;6.82;;;4.50;90.70;;;;;;5030626;28;20343;-47
2023/01/16 09:00:27;;;;;;;9.55;6.63;;;4.60;91.00;;;;;;5027102;28;20116;-45
2023/01/16 09:02:57;;;;;;;11.63;6.32;;;4.50;90.60;;;;;;5031814;28;20048;-45
2023/01/16 09:05:25;;;;;;;9.95;6.90;;;4.50;90.60;;;;;;5032429;28;20034;-45
2023/01/16 09:07:52;;;;;;;8.88;6.80;;;4.60;90.70;;;;;;5030093;28;20045;-45
2023/01/16 09:10:18;;;;;;;10.73;6.72;;;4.60;90.70;;;;;;5029975;28;20057;-47
2023/01/16 09:15:30;;;;;;;10.15;6.85;;;4.60;90.70;;;;;;5028973;28;20120;-45
2023/01/16 09:17:57;;;;;;;9.55;6.63;;;4.70;90.60;;;;;;5029459;28;20439;-45
2023/01/16 09:20:23;;;;;;;8.43;6.57;;;4.70;90.60;;;;;;5032206;28;20029;-45
2023/01/16 09:22:59;;;;;;;11.00;6.97;;;4.70;90.60;;;;;;5032188;28;20026;-44
2023/01/16 09:25:25;;;;;;;7.07;5.38;;;4.70;90.50;;;;;;5022694;28;20041;-47
2023/01/16 09:27:52;;;;;;;9.82;5.22;;;4.70;90.40;;;;;;5032652;28;20056;-45
2023/01/16 09:30:18;;;;;;;9.60;6.25;;;4.70;90.20;;;;;;5033420;28;20033;-44
2023/01/16 09:32:46;;;;;;;8.95;5.40;;;4.80;90.10;;;;;;5033062;28;20029;-46
2023/01/16 09:35:14;;;;;;;8.02;4.50;;;4.80;89.90;;;;;;5030397;28;20454;-46
2023/01/16 09:37:45;;;;;;;8.52;4.22;;;4.80;89.70;;;;;;5026848;28;20443;-45
2023/01/16 09:40:16;;;;;;;9.65;4.40;;;4.90;89.40;;;;;;5030158;28;20091;-43
2023/01/16 09:45:51;;;;;;;7.57;3.95;;;4.90;89.30;;;;;;5028728;28;20064;-44
2023/01/16 09:48:30;;;;;;;9.95;4.82;;;5.00;89.40;;;;;;5015499;28;20099;-46
2023/01/16 09:50:59;;;;;;;;;;;5.10;89.20;;;;;;5032556;28;20113;-43
2023/01/16 09:59:41;;;;;;;4.63;2.80;;;5.20;88.30;;;;;;5022267;28;20048;-45
2023/01/16 10:02:19;;;;;;;6.15;3.00;;;5.30;87.90;;;;;;5043702;28;20045;-44
2023/01/16 10:04:47;;;;;;;5.93;2.33;;;5.40;87.60;;;;;;5025251;28;20053;-47
2023/01/16 10:07:36;;;;;;;5.80;2.78;;;5.30;87.10;;;;;;5038462;28;20037;-45
2023/01/16 10:10:21;;;;;;;7.68;2.17;;;5.40;87.20;;;;;;5038950;28;20343;-47
2023/01/16 10:13:19;;;;;;;5.95;2.25;;;5.40;87.00;;;;;;5031173;28;20041;-45
2023/01/16 10:16:23;;;;;;;4.47;1.98;;;5.50;87.10;;;;;;5026600;28;20095;-44
2023/01/16 10:19:10;;;;;;;5.45;2.38;;;5.50;86.60;;;;;;5028332;28;20026;-45
2023/01/16 10:22:18;;;;;;;6.70;1.85;;;5.60;86.60;;;;;;5021983;28;20041;-48
2023/01/16 10:24:50;;;;;;;6.82;1.90;;;5.60;86.10;;;;;;5033129;28;20386;-48
2023/01/16 10:27:27;;;;;;;4.47;1.92;;;5.60;86.30;;;;;;5015754;28;20076;-45
2023/01/16 10:30:38;;;;;;;4.05;1.80;;;5.60;86.20;;;;;;5027797;28;20110;-47
2023/01/16 10:33:28;;;;;;;3.35;1.35;;;5.60;85.80;;;;;;5027665;28;20073;-46
2023/01/16 10:35:56;;;;;;;5.93;1.65;;;5.60;85.50;;;;;;5017474;28;20126;-46
2023/01/16 10:38:33;;;;;;;5.22;1.60;;;5.70;85.60;;;;;;5025236;28;20118;-46
2023/01/16 10:49:25;;;;;;;3.15;1.42;;;5.70;85.50;;;;;;5029928;28;20018;-45
2023/01/16 10:49:25;;;;;;;3.55;1.20;;;5.60;85.60;;;;;;5031275;28;20478;-45
2023/01/16 10:51:54;;;;;;;3.67;1.45;;;5.60;85.90;;;;;;5023118;28;20079;-47
2023/01/16 10:54:21;;;;;;;5.13;1.38;;;5.60;85.30;;;;;;5031493;28;20041;-49
2023/01/16 10:56:48;;;;;;;2.40;1.00;;;5.60;85.50;;;;;;5035898;28;20366;-47
2023/01/16 10:59:15;;;;;;;2.97;1.08;;;5.50;85.60;;;;;;5042194;28;20111;-49
2023/01/16 11:01:42;;;;;;;2.10;1.13;;;5.50;85.50;;;;;;5032891;28;20331;-48
2023/01/16 11:04:12;;;;;;;3.22;1.60;;;5.50;86.00;;;;;;5029176;28;20497;-48
2023/01/16 11:06:41;;;;;;;4.88;1.92;;;5.50;86.10;;;;;;5023995;28;20025;-45
2023/01/16 11:09:25;;;;;;;5.97;1.05;;;5.50;86.10;;;;;;5027651;28;20053;-47
2023/01/16 11:20:41;;;;;;;4.07;1.30;;;5.50;86.00;;;;;;5017501;28;20090;-45
2023/01/16 11:23:23;;;;;;;3.72;1.30;;;5.50;86.30;;;;;;5028559;28;20528;-47
2023/01/16 11:25:54;;;;;;;8.15;1.98;;;5.50;86.30;;;;;;5039983;28;20090;-46
2023/01/16 11:28:42;;;;;;;5.20;1.85;;;5.50;86.00;;;;;;5029684;28;20041;-46
2023/01/16 11:31:31;;;;;;;5.30;1.38;;;5.40;86.30;;;;;;5017392;28;20087;-50
2023/01/16 11:34:14;;;;;;;3.60;1.70;;;5.40;86.70;;;;;;5033258;28;20018;-48
2023/01/16 11:36:42;;;;;;;3.28;1.40;;;5.50;86.90;;;;;;5031347;28;20473;-46
2023/01/16 11:39:20;;;;;;;4.32;1.70;;;5.40;86.60;;;;;;5033102;28;20025;-49
2023/01/16 11:41:50;;;;;;;2.67;0.93;;;5.40;86.80;;;;;;5026373;28;20026;-46
2023/01/16 11:47:15;;;;;;;4.32;1.50;;;5.40;87.20;;;;;;5026349;28;20040;-48
2023/01/16 11:49:48;;;;;;;3.35;1.25;;;5.40;87.40;;;;;;5030497;28;20025;-48
2023/01/16 11:52:26;;;;;;;2.38;1.45;;;5.40;87.20;;;;;;5037763;28;20029;-47
2023/01/16 11:54:58;;;;;;;5.85;2.33;;;5.40;87.20;;;;;;5038092;28;20167;-46
2023/01/16 11:57:49;;;;;;;3.17;1.23;;;5.40;87.30;;;;;;5024490;28;20542;-46
2023/01/16 12:00:50;;;;;;;4.00;1.35;;;5.40;87.40;;;;;;5032690;28;20437;-44
2023/01/16 12:03:46;;;;;;;3.42;1.20;;;5.30;87.60;;;;;;5016835;28;20049;-45
2023/01/16 12:06:41;;;;;;;2.80;1.13;;;5.30;87.90;;;;;;5033300;28;20032;-45
2023/01/16 12:09:42;;;;;;;4.00;1.55;;;5.30;87.90;;;;;;5029685;28;20135;-45
2023/01/16 12:15:42;;;;;;;3.67;1.60;;;5.20;88.00;;;;;;5033113;28;20497;-55
2023/01/16 12:18:40;;;;;;;3.28;1.10;;;5.20;87.90;;;;;;5027648;28;20052;-61
2023/01/16 12:21:46;;;;;;;2.97;1.50;;;5.10;88.20;;;;;;5035322;28;20057;-64
2023/01/16 12:24:54;;;;;;;7.68;1.58;;;5.10;88.80;;;;;;5033975;28;20041;-64
2023/01/16 12:27:58;;;;;;;10.25;2.85;;;5.00;89.40;;;;;;5028452;28;20041;-64
2023/01/16 12:31:03;;;;;;;4.82;1.25;;;4.90;89.70;;;;;;5032170;28;20447;-64
2023/01/16 12:34:16;;;;;;;5.70;1.50;;;4.90;90.10;;;;;;5028743;28;20268;-63
2023/01/16 12:37:12;;;;;;;4.63;2.58;;;4.80;90.40;;;;;;5062240;28;20092;-63
2023/01/16 12:40:14;;;;;;;3.70;1.25;;;4.70;90.30;;;;;;5033256;28;20111;-62
2023/01/16 12:43:19;;;;;;;3.35;1.50;;;4.60;90.50;;;;;;5032047;28;20451;-62
2023/01/16 12:45:59;;;;;;;3.75;1.08;;;4.60;90.60;;;;;;5032167;28;20183;-61
2023/01/16 12:49:11;;;;;;;5.45;1.27;;;4.50;90.60;;;;;;5032078;28;20034;-60
2023/01/16 12:52:11;;;;;;;4.85;1.88;;;4.50;90.80;;;;;;5029150;28;20056;-61
2023/01/16 12:55:11;;;;;;;3.83;1.45;;;4.50;90.80;;;;;;5030085;28;20090;-62
2023/01/16 12:57:55;;;;;;;6.88;3.05;;;4.50;91.20;;;;;;5026244;28;20018;-61
2023/01/16 13:00:36;;;;;;;6.25;1.52;;;4.60;91.50;;;;;;5025868;28;20032;-62
2023/01/16 13:03:13;;;;;;;3.85;2.25;;;4.60;91.50;;;;;;5033023;28;20049;-62
2023/01/16 13:05:44;;;;;;;4.03;1.77;;;4.60;91.60;;;;;;5033630;28;20063;-62
2023/01/16 13:08:38;;;;;;;8.68;1.52;;;4.60;91.70;;;;;;5027778;28;20029;-63
2023/01/16 13:14:08;;;;;;;6.38;1.55;;;4.60;91.80;;;;;;5033256;28;20402;-62
2023/01/16 13:16:44;;;;;;;5.65;1.38;;;4.60;91.80;;;;;;5033475;28;20018;-62
2023/01/16 13:19:13;;;;;;;4.45;1.60;;;4.60;91.90;;;;;;5026093;28;20455;-62
2023/01/16 13:22:03;;;;;;;5.60;2.13;;;4.60;92.00;;;;;;5037412;28;20033;-61
2023/01/16 13:24:51;;;;;;;6.60;1.73;;;4.70;92.20;;;;;;5024645;28;20029;-62
2023/01/16 13:27:24;;;;;;;6.18;1.50;;;4.70;92.20;;;;;;5028402;28;20026;-62
2023/01/16 13:30:05;;;;;;;5.05;1.60;;;4.60;92.20;;;;;;5024702;28;20221;-61
2023/01/16 13:32:44;;;;;;;6.82;1.80;;;4.70;92.30;;;;;;5032834;28;20014;-61
2023/01/16 13:35:35;;;;;;;5.95;1.50;;;4.70;92.40;;;;;;5038670;28;20466;-61
2023/01/16 13:38:25;;;;;;;3.17;1.67;;;4.70;92.40;;;;;;5034495;28;20120;-60
2023/01/16 13:41:07;;;;;;;4.50;1.45;;;4.70;92.30;;;;;;5031261;28;20025;-58
2023/01/16 13:46:31;;;;;;;3.72;1.30;;;4.70;92.20;;;;;;5032609;28;20048;-59
2023/01/16 13:49:04;;;;;;;4.93;1.60;;;4.70;92.10;;;;;;5039750;28;20017;-60
2023/01/16 13:51:39;;;;;;;3.55;1.20;;;4.70;92.10;;;;;;5031772;28;20025;-62
2023/01/16 13:54:16;;;;;;;3.47;1.15;;;4.70;92.20;;;;;;5030299;28;20040;-62
2023/01/16 13:56:43;;;;;;;5.85;1.95;;;4.70;92.30;;;;;;5029511;28;20026;-61
2023/01/16 13:59:47;;;;;;;3.05;1.42;;;4.70;92.30;;;;;;5024471;28;20031;-62
2023/01/16 14:02:40;;;;;;;3.45;1.13;;;4.80;92.40;;;;;;5031575;28;20025;-62
2023/01/16 14:05:42;;;;;;;4.88;1.42;;;4.70;92.30;;;;;;5026165;28;20072;-61
2023/01/16 14:12:19;;;;;;;4.75;2.28;;;4.80;92.00;;;;;;5031468;28;20122;-59
2023/01/16 14:18:20;;;;;;;3.83;1.65;;;4.70;92.20;;;;;;4947988;29;20138;-61
2023/01/16 14:21:10;;;;;;;5.78;1.67;;;4.80;92.30;;;;;;4952161;29;20070;-62
2023/01/16 14:26:41;;;;;;;4.10;1.58;;;4.80;92.50;;;;;;4952504;29;20035;-59
2023/01/16 14:29:31;;;;;;;4.53;1.40;;;4.90;92.50;;;;;;4952234;29;20468;-62
2023/01/16 14:32:23;;;;;;;4.93;1.58;;;4.90;92.60;;;;;;4931566;29;20051;-61
2023/01/16 14:35:13;;;;;;;3.55;1.60;;;4.90;92.40;;;;;;4929225;29;20035;-61
2023/01/16 14:37:45;;;;;;;4.18;1.50;;;4.90;92.30;;;;;;4935484;29;20439;-60
2023/01/16 14:55:40;;;;;;;5.35;1.30;;;5.10;92.40;;;;;;5031213;28;20506;-55
2023/01/16 14:58:13;;;;;;;6.22;1.67;;;5.00;92.30;;;;;;5025071;28;20736;-55
2023/01/16 15:00:41;;;;;;;6.07;1.30;;;5.00;92.10;;;;;;5020342;28;20045;-55
2023/01/16 15:03:12;;;;;;;4.18;1.30;;;5.00;92.10;;;;;;5022266;28;20057;-57